Time;durP1;ratioP1;P1;durP2;ratioP2;P2;SDS_P1;SDS_P2;PMS_P1;PMS_P2;Temp;Humidity;BMP_temperature;BMP_pressure;BME280_temperature;BME280_humidity;BME280_pressure;Samples;Min_cycle;Max_cycle;Signal;HPM_P1;HPM_P2
2022/10/07 00:01:57;;;;;;;73.78;52.42;;;17.10;84.80;;;;;;5040440;28;20059;-52
2022/10/07 00:04:23;;;;;;;78.68;54.17;;;17.00;85.00;;;;;;5052482;28;20025;-52
2022/10/07 00:06:49;;;;;;;77.37;57.87;;;17.00;84.70;;;;;;5041883;28;20029;-53
2022/10/07 00:09:14;;;;;;;82.65;58.40;;;17.10;84.60;;;;;;5044883;28;20035;-52
2022/10/07 00:11:40;;;;;;;78.43;57.55;;;17.10;84.40;;;;;;5047052;28;20499;-52
2022/10/07 00:14:06;;;;;;;90.53;61.35;;;17.00;85.40;;;;;;5033933;28;20043;-54
2022/10/07 00:16:38;;;;;;;89.47;62.70;;;16.90;85.90;;;;;;5034943;28;20025;-52
2022/10/07 00:19:07;;;;;;;82.93;60.35;;;17.00;85.90;;;;;;5033536;28;20112;-52
2022/10/07 00:21:34;;;;;;;77.32;56.47;;;17.10;85.60;;;;;;5041834;28;20052;-52
2022/10/07 00:24:00;;;;;;;76.30;56.80;;;17.00;85.40;;;;;;5033688;28;20025;-52
2022/10/07 00:26:28;;;;;;;91.10;65.90;;;16.90;85.70;;;;;;5047427;28;20447;-52
2022/10/07 00:28:55;;;;;;;101.32;66.13;;;16.90;86.20;;;;;;5053620;28;20491;-52
2022/10/07 00:31:23;;;;;;;94.07;62.88;;;16.90;86.00;;;;;;5046031;28;20109;-52
2022/10/07 00:33:50;;;;;;;80.22;55.15;;;17.00;86.00;;;;;;5051827;28;20112;-52
2022/10/07 00:36:19;;;;;;;97.78;64.07;;;16.90;86.50;;;;;;5052998;28;20458;-51
2022/10/07 00:38:50;;;;;;;91.20;64.97;;;16.80;87.20;;;;;;5051337;28;20029;-52
2022/10/07 00:41:19;;;;;;;112.85;70.75;;;16.80;87.20;;;;;;5044156;28;20483;-52
2022/10/07 00:43:45;;;;;;;97.07;69.53;;;16.80;87.70;;;;;;5033366;28;20446;-51
2022/10/07 00:46:36;;;;;;;108.55;74.13;;;16.90;87.20;;;;;;5033150;28;20033;-51
2022/10/07 00:49:07;;;;;;;102.03;69.70;;;16.90;87.40;;;;;;5038898;28;20109;-52
2022/10/07 00:51:34;;;;;;;104.72;73.88;;;16.90;87.00;;;;;;5046976;28;20384;-52
2022/10/07 00:54:03;;;;;;;98.70;67.43;;;16.90;87.00;;;;;;5051363;28;20068;-52
2022/10/07 00:56:30;;;;;;;99.22;66.18;;;16.90;87.10;;;;;;5034828;28;20026;-52
2022/10/07 00:58:58;;;;;;;104.63;67.43;;;17.00;86.70;;;;;;5036331;28;20061;-52
2022/10/07 01:01:24;;;;;;;99.07;70.10;;;17.00;86.40;;;;;;5050832;28;20035;-52
2022/10/07 01:03:50;;;;;;;100.57;70.80;;;17.00;86.30;;;;;;5035045;28;20029;-52
2022/10/07 01:06:16;;;;;;;101.60;70.40;;;17.00;86.00;;;;;;5037849;28;20059;-52
2022/10/07 01:08:43;;;;;;;107.05;71.28;;;17.00;86.00;;;;;;5052613;28;20035;-52
2022/10/07 01:11:24;;;;;;;94.30;65.03;;;17.00;85.90;;;;;;5036404;28;20037;-52
2022/10/07 01:14:06;;;;;;;91.78;61.08;;;16.90;86.30;;;;;;5037412;28;20092;-53
2022/10/07 01:16:37;;;;;;;100.70;67.07;;;16.70;87.40;;;;;;5043502;28;20465;-53
2022/10/07 01:19:13;;;;;;;102.75;70.45;;;16.70;87.20;;;;;;5052360;28;20028;-52
2022/10/07 01:21:42;;;;;;;104.85;70.55;;;16.70;87.40;;;;;;5052109;28;20384;-52
2022/10/07 01:24:40;;;;;;;99.70;68.30;;;16.80;87.20;;;;;;5039917;28;20527;-53
2022/10/07 01:27:18;;;;;;;99.18;68.03;;;16.80;87.40;;;;;;5032516;28;20033;-52
2022/10/07 01:29:55;;;;;;;102.95;72.15;;;16.80;86.90;;;;;;5033399;28;20025;-51
2022/10/07 01:32:37;;;;;;;99.60;64.60;;;16.80;87.00;;;;;;5033460;28;20105;-52
2022/10/07 01:35:08;;;;;;;100.50;67.65;;;16.80;86.90;;;;;;5033328;28;20026;-52
2022/10/07 01:37:39;;;;;;;94.05;66.22;;;16.80;86.60;;;;;;5051846;28;20483;-53
2022/10/07 01:40:27;;;;;;;95.40;66.20;;;16.80;86.30;;;;;;5051683;28;20029;-54
2022/10/07 01:42:54;;;;;;;92.70;64.55;;;16.80;86.20;;;;;;5048434;28;20084;-54
2022/10/07 01:45:23;;;;;;;97.88;67.00;;;16.80;86.10;;;;;;5050171;28;20032;-52
2022/10/07 01:47:50;;;;;;;88.25;61.60;;;16.80;86.10;;;;;;5032162;28;20120;-52
2022/10/07 01:50:20;;;;;;;89.97;62.38;;;16.80;86.30;;;;;;5045335;28;20545;-52
2022/10/07 01:52:54;;;;;;;91.72;63.22;;;16.80;86.50;;;;;;5032054;28;20502;-52
2022/10/07 01:56:05;;;;;;;88.13;62.58;;;16.80;86.60;;;;;;5032926;28;20100;-54
2022/10/07 01:59:09;;;;;;;91.93;62.80;;;16.70;87.30;;;;;;4972644;28;20093;-52
2022/10/07 02:02:01;;;;;;;86.43;61.05;;;16.60;87.30;;;;;;4998807;28;20041;-52
2022/10/07 02:04:32;;;;;;;90.47;60.50;;;16.70;87.30;;;;;;5037305;28;20029;-52
2022/10/07 02:07:10;;;;;;;86.38;57.58;;;16.60;87.00;;;;;;5031740;28;20029;-52
2022/10/07 02:09:40;;;;;;;87.70;59.50;;;16.60;87.20;;;;;;5034655;28;20036;-52
2022/10/07 02:12:24;;;;;;;83.32;58.85;;;16.60;87.20;;;;;;5048808;28;20079;-52
2022/10/07 02:15:02;;;;;;;94.85;61.55;;;16.60;87.10;;;;;;5048713;28;20029;-53
2022/10/07 02:17:33;;;;;;;89.95;60.15;;;16.70;87.10;;;;;;5050277;28;20025;-53
2022/10/07 02:20:00;;;;;;;84.43;57.75;;;16.60;87.30;;;;;;5046490;28;20075;-52
2022/10/07 02:22:27;;;;;;;80.32;57.92;;;16.50;87.40;;;;;;5032047;28;20488;-53
2022/10/07 02:24:57;;;;;;;86.85;60.35;;;16.50;87.30;;;;;;5031319;28;20031;-54
2022/10/07 02:27:29;;;;;;;73.38;53.08;;;16.50;87.10;;;;;;5047021;28;20027;-54
2022/10/07 02:29:58;;;;;;;78.85;56.58;;;16.30;87.50;;;;;;5049783;28;20017;-54
2022/10/07 02:32:26;;;;;;;85.38;58.30;;;16.30;87.50;;;;;;5035357;28;20033;-54
2022/10/07 02:34:57;;;;;;;80.35;57.83;;;16.30;87.50;;;;;;5049162;28;20029;-55
2022/10/07 02:37:28;;;;;;;90.15;59.13;;;16.40;87.50;;;;;;5051262;28;20059;-54
2022/10/07 02:39:56;;;;;;;87.13;59.85;;;16.40;87.40;;;;;;5040622;28;20427;-54
2022/10/07 02:42:33;;;;;;;85.78;57.60;;;16.50;87.20;;;;;;5043512;28;20132;-53
2022/10/07 02:45:18;;;;;;;81.53;56.95;;;16.50;87.20;;;;;;5050603;28;20543;-54
2022/10/07 02:47:48;;;;;;;77.63;56.85;;;16.50;87.20;;;;;;5046409;28;20041;-52
2022/10/07 02:50:21;;;;;;;76.82;52.55;;;16.50;87.00;;;;;;5036840;28;20017;-53
2022/10/07 02:52:48;;;;;;;85.82;57.70;;;16.40;87.00;;;;;;5037299;28;20029;-52
2022/10/07 02:55:16;;;;;;;;;;;16.50;86.90;;;;;;5044742;28;20480;-53
2022/10/07 02:57:46;;;;;;;87.63;57.95;;;16.40;87.50;;;;;;5031546;28;19963;-53
2022/10/07 03:00:14;;;;;;;85.88;56.97;;;16.40;87.00;;;;;;5033875;28;20076;-52
2022/10/07 03:02:53;;;;;;;;;;;16.50;87.00;;;;;;5049470;28;20036;-52
2022/10/07 03:05:21;;;;;;;82.15;53.53;;;16.40;86.90;;;;;;5034706;28;19971;-54
2022/10/07 03:07:49;;;;;;;74.18;52.08;;;16.40;86.90;;;;;;5031041;28;20029;-52
2022/10/07 03:10:15;;;;;;;78.35;52.75;;;16.40;86.80;;;;;;5046492;28;20597;-53
2022/10/07 03:12:42;;;;;;;79.95;52.95;;;16.40;86.80;;;;;;5050490;28;20143;-54
2022/10/07 03:15:09;;;;;;;75.30;52.70;;;16.40;86.80;;;;;;5045720;28;20033;-54
2022/10/07 03:17:35;;;;;;;77.18;51.25;;;16.40;86.60;;;;;;5070929;28;20387;-52
2022/10/07 03:20:01;;;;;;;75.22;50.72;;;16.30;86.50;;;;;;5064571;28;20029;-53
2022/10/07 03:22:28;;;;;;;74.20;49.80;;;16.30;86.30;;;;;;5043970;28;20036;-53
2022/10/07 03:24:54;;;;;;;70.85;50.78;;;16.30;86.20;;;;;;5044968;28;20029;-52
2022/10/07 03:27:20;;;;;;;77.35;54.70;;;16.30;86.50;;;;;;5049661;28;20055;-51
2022/10/07 03:29:47;;;;;;;84.63;54.92;;;16.10;87.50;;;;;;5041130;28;20029;-54
2022/10/07 03:32:13;;;;;;;73.50;52.08;;;16.10;87.30;;;;;;5039336;28;20017;-52
2022/10/07 03:34:39;;;;;;;71.53;49.43;;;16.10;87.10;;;;;;5050971;28;20017;-52
2022/10/07 03:37:05;;;;;;;72.28;49.33;;;16.20;86.80;;;;;;5046107;28;20338;-52
2022/10/07 03:39:31;;;;;;;73.82;49.58;;;16.20;86.40;;;;;;5043318;28;20029;-54
2022/10/07 03:41:56;;;;;;;71.90;48.60;;;16.20;86.20;;;;;;5037389;28;20037;-52
2022/10/07 03:44:22;;;;;;;68.35;48.22;;;16.20;86.20;;;;;;5034301;28;20029;-52
2022/10/07 03:46:49;;;;;;;68.50;46.72;;;16.10;86.10;;;;;;5042942;28;20024;-53
2022/10/07 03:49:15;;;;;;;64.88;45.17;;;16.10;86.20;;;;;;5034717;28;20305;-52
2022/10/07 03:51:41;;;;;;;96.40;47.70;;;16.10;86.30;;;;;;5034102;28;20104;-53
2022/10/07 03:54:07;;;;;;;68.00;44.13;;;15.90;86.50;;;;;;5034218;28;20096;-52
2022/10/07 03:56:32;;;;;;;67.38;44.95;;;15.90;86.50;;;;;;5039561;28;20102;-53
2022/10/07 03:58:58;;;;;;;63.35;45.17;;;16.00;86.60;;;;;;5037118;28;20095;-54
2022/10/07 04:01:24;;;;;;;64.32;45.38;;;15.90;86.70;;;;;;5033013;28;20507;-53
2022/10/07 04:03:50;;;;;;;52.78;40.15;;;16.00;86.60;;;;;;5034152;28;20021;-52
2022/10/07 04:06:16;;;;;;;60.60;41.22;;;16.00;86.30;;;;;;5032540;28;20026;-52
2022/10/07 04:08:43;;;;;;;53.17;38.78;;;15.80;86.30;;;;;;5033927;28;20025;-52
2022/10/07 04:11:09;;;;;;;54.85;40.20;;;15.70;86.70;;;;;;5033927;28;20025;-52
2022/10/07 04:13:35;;;;;;;62.33;43.93;;;15.70;87.00;;;;;;5033899;28;20025;-52
2022/10/07 04:16:08;;;;;;;62.40;42.70;;;15.70;87.30;;;;;;5033937;28;20022;-52
2022/10/07 04:18:34;;;;;;;63.13;44.10;;;15.60;87.90;;;;;;5034000;28;20033;-52
2022/10/07 04:21:00;;;;;;;58.17;42.22;;;15.60;87.70;;;;;;5033641;28;20113;-52
2022/10/07 04:23:26;;;;;;;54.30;39.65;;;15.60;87.70;;;;;;5033722;28;20032;-53
2022/10/07 04:25:52;;;;;;;50.80;37.75;;;15.60;87.70;;;;;;5033532;28;20029;-51
2022/10/07 04:28:20;;;;;;;45.28;33.45;;;15.60;87.60;;;;;;5033404;28;20084;-50
2022/10/07 04:30:50;;;;;;;40.42;32.17;;;15.60;87.30;;;;;;5033590;28;20022;-51
2022/10/07 04:33:17;;;;;;;42.35;30.70;;;15.60;86.90;;;;;;5033629;28;20105;-52
2022/10/07 04:35:44;;;;;;;35.63;28.80;;;15.50;86.60;;;;;;5033461;28;20385;-52
2022/10/07 04:38:11;;;;;;;46.03;34.13;;;15.40;86.50;;;;;;5033336;28;20025;-53
2022/10/07 04:40:39;;;;;;;41.45;32.72;;;15.30;86.70;;;;;;5033334;28;20041;-51
2022/10/07 04:43:25;;;;;;;43.10;32.63;;;15.20;87.00;;;;;;5033214;28;20033;-52
2022/10/07 04:45:58;;;;;;;48.22;35.08;;;15.20;87.20;;;;;;5033197;28;20024;-54
2022/10/07 04:48:25;;;;;;;61.42;43.00;;;15.20;87.30;;;;;;5032784;28;20339;-50
2022/10/07 04:50:51;;;;;;;64.18;42.60;;;15.10;87.60;;;;;;5033092;28;20067;-52
2022/10/07 04:53:18;;;;;;;58.63;43.70;;;15.10;87.70;;;;;;5033145;28;20021;-53
2022/10/07 04:55:49;;;;;;;67.45;47.70;;;15.10;88.00;;;;;;5033122;28;20033;-51
2022/10/07 04:58:16;;;;;;;73.78;48.40;;;15.20;88.00;;;;;;5032966;28;20072;-51
2022/10/07 05:00:44;;;;;;;74.07;47.15;;;15.20;88.10;;;;;;5032970;28;20464;-51
2022/10/07 05:03:11;;;;;;;70.53;46.92;;;15.20;88.20;;;;;;5032880;28;20064;-52
2022/10/07 05:05:41;;;;;;;77.78;49.88;;;15.20;88.80;;;;;;5032775;28;20022;-52
2022/10/07 05:08:07;;;;;;;73.72;47.00;;;15.30;88.30;;;;;;5032705;28;20025;-51
2022/10/07 05:10:38;;;;;;;71.30;47.13;;;15.20;88.40;;;;;;5032854;28;20376;-51
2022/10/07 05:13:06;;;;;;;63.15;43.53;;;15.20;88.50;;;;;;5032758;28;20489;-51
2022/10/07 05:15:32;;;;;;;66.05;44.70;;;15.20;88.30;;;;;;5032795;28;20086;-52
2022/10/07 05:17:58;;;;;;;69.50;45.65;;;17.10;89.10;;;;;;5031362;28;20175;-51
2022/10/07 05:20:25;;;;;;;71.63;45.28;;;15.30;88.00;;;;;;5032489;28;20148;-51
2022/10/07 05:22:50;;;;;;;75.63;50.60;;;15.30;88.10;;;;;;5032629;28;20022;-52
2022/10/07 05:25:16;;;;;;;72.50;49.30;;;15.30;88.10;;;;;;5032427;28;20018;-51
2022/10/07 05:27:42;;;;;;;70.82;48.30;;;15.30;88.10;;;;;;5032505;28;20037;-51
2022/10/07 05:30:09;;;;;;;75.78;49.78;;;15.30;88.20;;;;;;5031040;28;20053;-53
2022/10/07 05:32:34;;;;;;;66.60;46.28;;;15.30;88.30;;;;;;5032357;28;20129;-51
2022/10/07 05:35:00;;;;;;;67.40;46.47;;;15.30;88.20;;;;;;5032381;28;20104;-52
2022/10/07 05:37:26;;;;;;;70.80;46.17;;;15.30;88.00;;;;;;5032420;28;20026;-51
2022/10/07 05:39:52;;;;;;;63.63;44.67;;;15.30;87.90;;;;;;5032243;28;20107;-50
2022/10/07 05:42:19;;;;;;;62.53;43.33;;;15.30;88.00;;;;;;5031994;28;20046;-51
2022/10/07 05:44:45;;;;;;;63.83;39.85;;;15.20;88.10;;;;;;5030758;28;20025;-51
2022/10/07 05:47:11;;;;;;;62.42;42.67;;;15.30;87.90;;;;;;5032134;28;20025;-53
2022/10/07 05:49:37;;;;;;;67.97;44.13;;;15.20;87.80;;;;;;5032081;28;20024;-51
2022/10/07 05:52:03;;;;;;;64.53;45.80;;;15.10;88.00;;;;;;5032274;28;20096;-51
2022/10/07 05:54:29;;;;;;;68.13;47.15;;;15.10;88.20;;;;;;5032033;28;20029;-51
2022/10/07 05:56:55;;;;;;;75.68;48.30;;;15.10;88.70;;;;;;5031993;28;20026;-53
2022/10/07 05:59:21;;;;;;;73.45;48.70;;;15.10;88.70;;;;;;5031540;28;20028;-50
2022/10/07 06:01:46;;;;;;;70.68;49.67;;;15.10;88.90;;;;;;5032028;28;20037;-51
2022/10/07 06:04:12;;;;;;;81.15;53.03;;;15.10;89.10;;;;;;5031968;28;20022;-52
2022/10/07 06:06:38;;;;;;;72.95;47.35;;;15.20;89.00;;;;;;5030694;28;20108;-53
2022/10/07 06:14:32;;;;;;;62.97;43.35;;;15.30;88.80;;;;;;5032049;28;20079;-51
2022/10/07 06:16:58;;;;;;;60.75;39.17;;;15.30;89.30;;;;;;5031630;28;20033;-51
2022/10/07 06:19:24;;;;;;;55.60;41.08;;;15.30;89.10;;;;;;5031699;28;20101;-52
2022/10/07 06:21:50;;;;;;;52.22;39.75;;;15.30;88.90;;;;;;5031836;28;20025;-51
2022/10/07 06:24:16;;;;;;;57.30;41.08;;;15.40;88.60;;;;;;5032050;28;20026;-52
2022/10/07 06:26:42;;;;;;;55.10;38.10;;;15.50;88.40;;;;;;5031714;28;20061;-51
2022/10/07 06:29:08;;;;;;;52.28;37.95;;;15.50;88.10;;;;;;5031461;28;20397;-51
2022/10/07 06:31:34;;;;;;;59.25;40.60;;;15.60;88.50;;;;;;5030252;28;20026;-52
2022/10/07 06:34:00;;;;;;;62.73;42.47;;;15.60;87.70;;;;;;5031701;28;20029;-52
2022/10/07 06:36:26;;;;;;;65.50;43.10;;;15.70;87.80;;;;;;5031541;28;20499;-51
2022/10/07 06:38:54;;;;;;;59.92;44.25;;;15.70;87.80;;;;;;5031715;28;20029;-54
2022/10/07 06:41:21;;;;;;;58.25;41.60;;;15.80;87.90;;;;;;5031277;28;20041;-54
2022/10/07 06:43:47;;;;;;;63.30;44.97;;;15.80;87.80;;;;;;5030198;28;20021;-52
2022/10/07 06:46:15;;;;;;;71.57;48.97;;;15.90;87.90;;;;;;5031389;28;20034;-54
2022/10/07 06:48:41;;;;;;;68.82;49.00;;;15.90;89.10;;;;;;5031260;28;20096;-53
2022/10/07 06:51:13;;;;;;;72.05;49.72;;;15.90;89.80;;;;;;5031369;28;20025;-52
2022/10/07 06:53:38;;;;;;;73.20;48.80;;;15.80;90.10;;;;;;5031446;28;20029;-51
2022/10/07 06:56:05;;;;;;;72.55;49.25;;;15.70;90.40;;;;;;5031091;28;20373;-53
2022/10/07 06:58:32;;;;;;;73.60;48.25;;;15.70;90.60;;;;;;5031168;28;20026;-54
2022/10/07 07:01:01;;;;;;;70.95;49.08;;;15.80;90.40;;;;;;5031302;28;20022;-52
2022/10/07 07:03:28;;;;;;;74.18;50.97;;;15.80;90.90;;;;;;5031274;28;20442;-54
2022/10/07 07:05:54;;;;;;;80.20;49.03;;;15.90;90.80;;;;;;5031325;28;20037;-54
2022/10/07 07:08:22;;;;;;;74.57;51.43;;;16.00;90.50;;;;;;5031070;28;20117;-54
2022/10/07 07:10:48;;;;;;;79.00;49.30;;;16.10;90.20;;;;;;5031572;28;20028;-54
2022/10/07 07:13:14;;;;;;;80.50;51.10;;;16.30;90.00;;;;;;5035158;28;20029;-54
2022/10/07 07:15:40;;;;;;;70.88;48.83;;;16.40;90.00;;;;;;5034879;28;20472;-53
2022/10/07 07:18:08;;;;;;;86.45;53.42;;;16.50;89.50;;;;;;5034828;28;20039;-52
2022/10/07 07:20:36;;;;;;;75.45;49.72;;;16.60;89.40;;;;;;5034997;28;20060;-54
2022/10/07 07:23:04;;;;;;;76.03;51.35;;;16.70;89.20;;;;;;5034817;28;20646;-53
2022/10/07 07:25:31;;;;;;;73.82;48.10;;;16.80;89.20;;;;;;5035010;28;20105;-52
2022/10/07 07:28:00;;;;;;;74.88;51.55;;;16.90;89.00;;;;;;5034775;28;20503;-53
2022/10/07 07:30:28;;;;;;;72.53;51.92;;;17.00;88.80;;;;;;5034486;28;20036;-53
2022/10/07 07:32:54;;;;;;;83.07;53.25;;;17.10;89.00;;;;;;5034512;28;20036;-52
2022/10/07 07:35:25;;;;;;;76.50;52.53;;;17.00;88.80;;;;;;5034674;28;20029;-56
2022/10/07 07:37:50;;;;;;;76.28;50.30;;;17.10;89.10;;;;;;5034593;28;20392;-56
2022/10/07 07:40:17;;;;;;;69.20;48.75;;;;;;;;;;5034408;28;20029;-54
2022/10/07 07:42:44;;;;;;;75.85;50.00;;;17.20;88.40;;;;;;5034281;28;20030;-56
2022/10/07 07:45:10;;;;;;;76.68;51.20;;;17.20;89.10;;;;;;5034352;28;20052;-55
2022/10/07 07:47:36;;;;;;;70.03;46.58;;;17.30;89.40;;;;;;5034778;28;20056;-56
2022/10/07 07:50:03;;;;;;;66.65;47.20;;;17.20;92.50;;;;;;5034144;28;20026;-54
2022/10/07 07:52:29;;;;;;;65.15;47.78;;;17.30;91.50;;;;;;5034518;28;20036;-56
2022/10/07 07:54:57;;;;;;;69.22;49.00;;;17.40;90.90;;;;;;5034231;28;20491;-55
2022/10/07 07:57:24;;;;;;;77.43;48.95;;;17.70;91.40;;;;;;5034146;28;20419;-56
2022/10/07 07:59:50;;;;;;;62.03;44.47;;;17.90;89.50;;;;;;5033965;28;20026;-56
2022/10/07 08:02:16;;;;;;;64.20;45.15;;;18.00;90.30;;;;;;5034120;28;20028;-56
2022/10/07 08:04:42;;;;;;;67.78;46.15;;;17.90;86.60;;;;;;5034083;28;20026;-56
2022/10/07 08:07:10;;;;;;;71.03;48.20;;;18.00;86.30;;;;;;5034120;28;20068;-56
2022/10/07 08:09:36;;;;;;;64.80;46.10;;;18.10;86.10;;;;;;5034005;28;20693;-55
2022/10/07 08:12:01;;;;;;;61.95;45.60;;;18.10;86.20;;;;;;5033848;28;20037;-56
2022/10/07 08:14:27;;;;;;;64.75;45.35;;;18.20;86.30;;;;;;5033882;28;20372;-55
2022/10/07 08:16:56;;;;;;;71.30;48.50;;;18.30;85.50;;;;;;5033792;28;20075;-56
2022/10/07 08:19:22;;;;;;;67.20;46.05;;;18.40;85.50;;;;;;5033658;28;20491;-55
2022/10/07 08:21:48;;;;;;;73.13;46.38;;;18.40;85.50;;;;;;5033695;28;20072;-52
2022/10/07 08:24:14;;;;;;;64.82;44.40;;;18.60;85.30;;;;;;5033141;28;20014;-56
2022/10/07 08:26:40;;;;;;;68.78;44.65;;;18.70;84.30;;;;;;5033634;28;20029;-56
2022/10/07 08:29:05;;;;;;;62.25;44.47;;;18.80;83.80;;;;;;5033537;28;20022;-55
2022/10/07 08:31:32;;;;;;;65.88;45.78;;;18.90;83.80;;;;;;5033608;28;20025;-56
2022/10/07 08:33:59;;;;;;;64.47;42.22;;;19.10;83.70;;;;;;5033475;28;20175;-55
2022/10/07 08:36:27;;;;;;;57.40;43.25;;;19.20;82.80;;;;;;5033481;28;20026;-55
2022/10/07 08:38:52;;;;;;;56.95;41.28;;;19.30;82.10;;;;;;5032062;28;20052;-57
2022/10/07 08:41:33;;;;;;;57.50;42.22;;;19.40;81.80;;;;;;5033758;28;20484;-55
2022/10/07 08:44:13;;;;;;;58.08;40.75;;;19.50;81.20;;;;;;5033358;28;20036;-56
2022/10/07 08:46:52;;;;;;;61.22;44.22;;;19.60;80.40;;;;;;5033361;28;20423;-55
2022/10/07 08:49:26;;;;;;;58.80;41.67;;;19.60;80.50;;;;;;5033429;28;20032;-55
2022/10/07 08:52:24;;;;;;;59.33;43.72;;;19.70;80.20;;;;;;5033507;28;20423;-56
2022/10/07 08:54:50;;;;;;;60.45;45.20;;;19.80;79.60;;;;;;5031919;28;20028;-57
2022/10/07 08:57:55;;;;;;;61.92;45.15;;;19.80;80.10;;;;;;5033135;28;20021;-57
2022/10/07 09:00:23;;;;;;;63.45;45.95;;;19.90;80.40;;;;;;4991252;28;20044;-56
2022/10/07 09:03:13;;;;;;;70.90;47.78;;;20.00;80.20;;;;;;5025053;28;20030;-56
2022/10/07 09:05:44;;;;;;;62.50;47.28;;;20.00;79.80;;;;;;5033002;28;20029;-55
2022/10/07 09:08:20;;;;;;;58.42;42.75;;;20.10;79.70;;;;;;5032859;28;20040;-56
2022/10/07 09:10:49;;;;;;;65.75;45.92;;;20.10;79.00;;;;;;5033009;28;20459;-55
2022/10/07 09:13:20;;;;;;;67.85;46.72;;;20.10;78.80;;;;;;5032807;28;20029;-56
2022/10/07 09:16:04;;;;;;;75.38;48.47;;;20.10;78.90;;;;;;5032716;28;20033;-55
2022/10/07 09:18:38;;;;;;;73.30;51.22;;;20.30;79.00;;;;;;5032540;28;20036;-57
2022/10/07 09:21:15;;;;;;;67.47;47.85;;;20.50;80.20;;;;;;5032672;28;20021;-55
2022/10/07 09:23:42;;;;;;;66.70;49.42;;;20.50;77.80;;;;;;5032761;28;20051;-55
2022/10/07 09:26:12;;;;;;;70.95;50.97;;;20.60;77.10;;;;;;5032592;28;20079;-57
2022/10/07 09:28:38;;;;;;;68.50;48.53;;;20.50;76.20;;;;;;5031352;28;20061;-57
2022/10/07 09:31:05;;;;;;;78.65;49.80;;;20.50;77.30;;;;;;5032424;28;20025;-55
2022/10/07 09:33:40;;;;;;;66.90;48.60;;;20.50;76.50;;;;;;5032458;28;20373;-55
2022/10/07 09:36:12;;;;;;;63.78;44.72;;;20.60;76.10;;;;;;5031486;28;20021;-56
2022/10/07 09:38:44;;;;;;;62.85;44.88;;;20.70;75.70;;;;;;5032445;28;20466;-56
2022/10/07 09:41:23;;;;;;;59.30;43.90;;;20.70;74.90;;;;;;5032158;28;20018;-56
2022/10/07 09:44:00;;;;;;;63.47;44.88;;;20.80;74.80;;;;;;5032215;28;20463;-56
2022/10/07 09:46:40;;;;;;;62.73;43.20;;;20.80;74.60;;;;;;5032295;28;20032;-57
2022/10/07 09:49:25;;;;;;;57.20;41.33;;;20.80;74.00;;;;;;5032353;28;20410;-56
2022/10/07 09:52:02;;;;;;;60.17;42.10;;;20.90;73.80;;;;;;5032121;28;20025;-56
2022/10/07 09:54:30;;;;;;;55.58;41.45;;;20.80;72.10;;;;;;5032101;28;20021;-57
2022/10/07 09:56:59;;;;;;;60.15;40.53;;;20.80;72.80;;;;;;5032257;28;20017;-56
2022/10/07 09:59:26;;;;;;;59.17;41.47;;;20.90;73.10;;;;;;5031782;28;20097;-56
2022/10/07 10:02:13;;;;;;;54.08;38.40;;;21.00;72.70;;;;;;5030733;28;20029;-55
2022/10/07 10:04:51;;;;;;;49.30;34.38;;;21.10;72.50;;;;;;5031936;28;20021;-55
2022/10/07 10:07:24;;;;;;;47.00;36.22;;;21.20;69.70;;;;;;5030740;28;20113;-56
2022/10/07 10:09:55;;;;;;;48.45;33.95;;;21.30;69.60;;;;;;5031578;28;20084;-56
2022/10/07 10:12:23;;;;;;;43.58;32.47;;;21.30;70.50;;;;;;5040390;28;20107;-54
2022/10/07 10:14:51;;;;;;;50.33;34.17;;;21.50;70.00;;;;;;5037467;28;20028;-56
2022/10/07 10:17:33;;;;;;;37.63;30.65;;;21.50;69.40;;;;;;5052750;28;20024;-55
2022/10/07 10:20:26;;;;;;;36.65;28.77;;;21.70;66.60;;;;;;5070101;28;20028;-56
2022/10/07 10:22:52;;;;;;;45.90;32.35;;;21.70;66.40;;;;;;5031679;28;20021;-56
2022/10/07 10:28:57;;;;;;;41.40;31.67;;;21.80;66.90;;;;;;5031415;28;20048;-56
2022/10/07 10:31:45;;;;;;;44.85;33.13;;;21.80;66.10;;;;;;5031566;28;20033;-54
2022/10/07 10:34:29;;;;;;;40.97;32.53;;;21.70;67.70;;;;;;5051152;28;20029;-54
2022/10/07 10:37:08;;;;;;;42.78;31.08;;;21.80;67.20;;;;;;5050463;28;20033;-54
2022/10/07 10:40:08;;;;;;;47.20;30.17;;;22.00;66.60;;;;;;5046018;28;20419;-56
2022/10/07 10:43:10;;;;;;;43.38;29.98;;;22.00;66.50;;;;;;5032388;28;20124;-56
2022/10/07 10:45:44;;;;;;;35.35;29.17;;;22.00;65.10;;;;;;5049274;28;20103;-54
2022/10/07 10:48:27;;;;;;;42.30;31.88;;;22.00;64.00;;;;;;5055319;28;20036;-54
2022/10/07 10:51:14;;;;;;;44.33;33.20;;;22.00;66.80;;;;;;5035292;28;20030;-54
2022/10/07 10:54:05;;;;;;;36.67;30.67;;;22.10;66.70;;;;;;5037487;28;20025;-56
2022/10/07 10:56:50;;;;;;;40.80;31.60;;;22.20;66.40;;;;;;5045166;28;20071;-54
2022/10/07 10:59:16;;;;;;;42.55;31.73;;;22.40;65.90;;;;;;5043600;28;20021;-54
2022/10/07 11:01:45;;;;;;;44.45;31.70;;;22.50;66.00;;;;;;5045434;28;20017;-54
2022/10/07 11:04:53;;;;;;;38.90;31.77;;;22.60;65.00;;;;;;5045109;28;20021;-55
2022/10/07 11:07:34;;;;;;;41.92;32.88;;;22.70;64.30;;;;;;5017758;28;20035;-54
2022/10/07 11:10:05;;;;;;;44.40;32.13;;;22.70;63.80;;;;;;5054138;28;20450;-54
2022/10/07 11:12:45;;;;;;;42.17;31.42;;;22.80;64.60;;;;;;5038396;28;20021;-54
2022/10/07 11:15:20;;;;;;;41.42;30.65;;;22.90;63.50;;;;;;5054814;28;20017;-55
2022/10/07 11:17:48;;;;;;;40.38;30.05;;;22.90;64.40;;;;;;5049088;28;20027;-54
2022/10/07 11:20:18;;;;;;;40.85;32.28;;;23.10;64.00;;;;;;5035343;28;20041;-54
2022/10/07 11:22:52;;;;;;;42.30;32.78;;;23.20;63.60;;;;;;5035762;28;20063;-54
2022/10/07 11:25:24;;;;;;;42.75;32.38;;;23.20;62.40;;;;;;5037351;28;20049;-54
2022/10/07 11:27:54;;;;;;;43.92;32.75;;;23.20;60.70;;;;;;5035695;28;20083;-54
2022/10/07 11:30:22;;;;;;;44.88;32.72;;;23.10;61.60;;;;;;5043690;28;20029;-54
2022/10/07 11:33:32;;;;;;;44.97;33.88;;;23.10;61.80;;;;;;5047116;28;20017;-54
2022/10/07 11:36:22;;;;;;;40.20;31.20;;;23.30;60.70;;;;;;5026609;28;20086;-54
2022/10/07 11:38:51;;;;;;;35.80;27.33;;;23.30;62.10;;;;;;5035108;28;20087;-54
2022/10/07 11:41:20;;;;;;;38.20;30.00;;;23.30;59.80;;;;;;5036432;28;20083;-54
2022/10/07 11:43:54;;;;;;;42.78;30.23;;;23.20;59.40;;;;;;5044160;28;20079;-55
2022/10/07 11:46:50;;;;;;;40.28;28.98;;;23.30;60.10;;;;;;5053095;28;20033;-54
2022/10/07 11:49:38;;;;;;;39.00;28.73;;;23.50;60.10;;;;;;5021928;28;20103;-53
2022/10/07 11:52:15;;;;;;;36.83;28.88;;;23.60;58.80;;;;;;5050985;28;20037;-55
2022/10/07 11:54:59;;;;;;;43.80;28.38;;;23.70;59.20;;;;;;5053694;28;20033;-54
2022/10/07 11:57:30;;;;;;;35.85;26.15;;;23.70;58.70;;;;;;5053466;28;20021;-55
2022/10/07 12:00:28;;;;;;;24.40;19.77;;;23.80;58.90;;;;;;5037704;28;20079;-54
2022/10/07 12:03:11;;;;;;;27.02;20.67;;;23.80;56.50;;;;;;5049047;28;20084;-54
2022/10/07 12:05:37;;;;;;;24.83;16.02;;;23.70;55.80;;;;;;5034199;28;20033;-54
2022/10/07 12:08:29;;;;;;;28.60;15.80;;;23.70;53.70;;;;;;5033894;28;20048;-54
2022/10/07 12:11:16;;;;;;;21.48;14.05;;;23.90;56.00;;;;;;5044364;28;20024;-54
2022/10/07 12:13:47;;;;;;;18.88;15.02;;;23.90;55.60;;;;;;5052534;28;20551;-52
2022/10/07 12:16:28;;;;;;;17.77;13.82;;;24.00;54.30;;;;;;5054052;28;20021;-52
2022/10/07 12:19:07;;;;;;;18.65;13.75;;;24.20;54.30;;;;;;5041734;28;20109;-52
2022/10/07 12:22:01;;;;;;;17.92;12.88;;;24.30;54.00;;;;;;5044051;28;20033;-53
2022/10/07 12:24:30;;;;;;;17.15;12.65;;;24.40;53.60;;;;;;5033752;28;20026;-52
2022/10/07 12:27:16;;;;;;;22.70;14.38;;;24.50;53.90;;;;;;5033759;28;20063;-52
2022/10/07 12:30:01;;;;;;;18.25;14.02;;;24.50;52.60;;;;;;5033542;28;20040;-52
2022/10/07 12:32:45;;;;;;;20.30;15.57;;;24.70;52.60;;;;;;5037391;28;20383;-53
2022/10/07 12:35:39;;;;;;;20.85;15.80;;;24.90;53.40;;;;;;5053538;28;20029;-53
2022/10/07 12:38:22;;;;;;;24.30;17.20;;;24.90;52.40;;;;;;5045336;28;20040;-54
2022/10/07 12:41:12;;;;;;;24.38;17.85;;;24.90;51.60;;;;;;5052837;28;20605;-53
2022/10/07 12:43:49;;;;;;;24.48;17.90;;;25.20;52.10;;;;;;5040407;28;20061;-53
2022/10/07 12:46:17;;;;;;;;;;;25.40;49.90;;;;;;5034808;28;20120;-53
2022/10/07 12:49:24;;;;;;;21.75;16.45;;;26.00;51.80;;;;;;5047394;28;19917;-53
2022/10/07 12:51:52;;;;;;;21.63;16.23;;;26.10;51.30;;;;;;5035841;28;20139;-53
2022/10/07 12:54:22;;;;;;;27.40;18.42;;;27.00;55.50;;;;;;5053078;28;20036;-52
2022/10/07 12:56:49;;;;;;;24.30;17.70;;;26.60;54.50;;;;;;5044425;28;20021;-53
2022/10/07 12:59:56;;;;;;;27.55;18.85;;;26.70;50.80;;;;;;5051571;28;20074;-53
2022/10/07 13:02:59;;;;;;;22.35;17.55;;;26.60;46.30;;;;;;5027318;28;20121;-54